sensor_id;sensor_type;location;lat;lon;timestamp;temperature;humidity
66962;HTU21D;53897;51.126;5.868;2023-04-21T00:02:24;22.96;42.03
66962;HTU21D;53897;51.126;5.868;2023-04-21T00:04:52;22.94;42.00
66962;HTU21D;53897;51.126;5.868;2023-04-21T00:07:18;22.93;41.99
66962;HTU21D;53897;51.126;5.868;2023-04-21T00:09:45;22.93;41.97
66962;HTU21D;53897;51.126;5.868;2023-04-21T00:12:11;22.91;41.97
66962;HTU21D;53897;51.126;5.868;2023-04-21T00:14:37;22.90;41.97
66962;HTU21D;53897;51.126;5.868;2023-04-21T00:17:04;22.88;41.96
66962;HTU21D;53897;51.126;5.868;2023-04-21T00:19:30;22.87;41.96
66962;HTU21D;53897;51.126;5.868;2023-04-21T00:21:57;22.86;41.95
66962;HTU21D;53897;51.126;5.868;2023-04-21T00:24:24;22.85;41.94
66962;HTU21D;53897;51.126;5.868;2023-04-21T00:26:50;22.85;41.94
66962;HTU21D;53897;51.126;5.868;2023-04-21T00:29:16;22.83;41.92
66962;HTU21D;53897;51.126;5.868;2023-04-21T00:31:42;22.81;41.92
66962;HTU21D;53897;51.126;5.868;2023-04-21T00:34:08;22.81;41.90
66962;HTU21D;53897;51.126;5.868;2023-04-21T00:36:33;22.79;41.86
66962;HTU21D;53897;51.126;5.868;2023-04-21T00:38:59;22.80;41.76
66962;HTU21D;53897;51.126;5.868;2023-04-21T00:41:27;22.78;41.74
66962;HTU21D;53897;51.126;5.868;2023-04-21T00:44:04;22.76;41.76
66962;HTU21D;53897;51.126;5.868;2023-04-21T00:46:31;22.75;41.76
66962;HTU21D;53897;51.126;5.868;2023-04-21T00:48:58;22.73;41.71
66962;HTU21D;53897;51.126;5.868;2023-04-21T00:51:27;22.72;41.66
66962;HTU21D;53897;51.126;5.868;2023-04-21T00:53:54;22.71;41.65
66962;HTU21D;53897;51.126;5.868;2023-04-21T00:56:21;22.70;41.63
66962;HTU21D;53897;51.126;5.868;2023-04-21T00:58:47;22.69;41.64
66962;HTU21D;53897;51.126;5.868;2023-04-21T01:01:13;22.68;41.64
66962;HTU21D;53897;51.126;5.868;2023-04-21T01:03:39;22.68;41.71
66962;HTU21D;53897;51.126;5.868;2023-04-21T01:06:05;22.66;41.74
66962;HTU21D;53897;51.126;5.868;2023-04-21T01:08:32;22.64;41.75
66962;HTU21D;53897;51.126;5.868;2023-04-21T01:10:58;22.65;41.74
66962;HTU21D;53897;51.126;5.868;2023-04-21T01:13:24;22.62;41.73
66962;HTU21D;53897;51.126;5.868;2023-04-21T01:15:50;22.62;41.73
66962;HTU21D;53897;51.126;5.868;2023-04-21T01:18:16;22.62;41.71
66962;HTU21D;53897;51.126;5.868;2023-04-21T01:20:46;22.61;41.70
66962;HTU21D;53897;51.126;5.868;2023-04-21T01:23:14;22.58;41.69
66962;HTU21D;53897;51.126;5.868;2023-04-21T01:25:43;22.58;41.71
66962;HTU21D;53897;51.126;5.868;2023-04-21T01:28:08;22.56;41.68
66962;HTU21D;53897;51.126;5.868;2023-04-21T01:30:34;22.56;41.69
66962;HTU21D;53897;51.126;5.868;2023-04-21T01:33:00;22.55;41.68
66962;HTU21D;53897;51.126;5.868;2023-04-21T01:35:26;22.54;41.70
66962;HTU21D;53897;51.126;5.868;2023-04-21T01:37:51;22.54;41.68
66962;HTU21D;53897;51.126;5.868;2023-04-21T01:40:18;22.55;41.62
66962;HTU21D;53897;51.126;5.868;2023-04-21T01:42:44;22.53;41.63
66962;HTU21D;53897;51.126;5.868;2023-04-21T01:45:10;22.50;41.63
66962;HTU21D;53897;51.126;5.868;2023-04-21T01:47:36;22.51;41.63
66962;HTU21D;53897;51.126;5.868;2023-04-21T01:50:02;22.50;41.64
66962;HTU21D;53897;51.126;5.868;2023-04-21T01:52:28;22.49;41.65
66962;HTU21D;53897;51.126;5.868;2023-04-21T01:54:54;22.48;41.64
66962;HTU21D;53897;51.126;5.868;2023-04-21T01:57:19;22.46;41.62
66962;HTU21D;53897;51.126;5.868;2023-04-21T01:59:45;22.47;41.63
66962;HTU21D;53897;51.126;5.868;2023-04-21T02:02:11;22.46;41.62
66962;HTU21D;53897;51.126;5.868;2023-04-21T02:04:37;22.43;41.61
66962;HTU21D;53897;51.126;5.868;2023-04-21T02:07:02;22.43;41.60
66962;HTU21D;53897;51.126;5.868;2023-04-21T02:09:28;22.43;41.59
66962;HTU21D;53897;51.126;5.868;2023-04-21T02:11:54;22.42;41.58
66962;HTU21D;53897;51.126;5.868;2023-04-21T02:14:22;22.42;41.57
66962;HTU21D;53897;51.126;5.868;2023-04-21T02:16:47;22.41;41.54
66962;HTU21D;53897;51.126;5.868;2023-04-21T02:19:13;22.39;41.55
66962;HTU21D;53897;51.126;5.868;2023-04-21T02:21:39;22.39;41.56
66962;HTU21D;53897;51.126;5.868;2023-04-21T02:24:04;22.38;41.54
66962;HTU21D;53897;51.126;5.868;2023-04-21T02:26:30;22.38;41.53
66962;HTU21D;53897;51.126;5.868;2023-04-21T02:28:59;22.38;41.52
66962;HTU21D;53897;51.126;5.868;2023-04-21T02:31:24;22.37;41.52
66962;HTU21D;53897;51.126;5.868;2023-04-21T02:33:50;22.36;41.50
66962;HTU21D;53897;51.126;5.868;2023-04-21T02:36:16;22.36;41.50
66962;HTU21D;53897;51.126;5.868;2023-04-21T02:38:41;22.35;41.50
66962;HTU21D;53897;51.126;5.868;2023-04-21T02:41:09;22.34;41.50
66962;HTU21D;53897;51.126;5.868;2023-04-21T02:43:34;22.33;41.49
66962;HTU21D;53897;51.126;5.868;2023-04-21T02:46:05;22.32;41.49
66962;HTU21D;53897;51.126;5.868;2023-04-21T02:48:33;22.32;41.46
66962;HTU21D;53897;51.126;5.868;2023-04-21T02:50:59;22.29;41.47
66962;HTU21D;53897;51.126;5.868;2023-04-21T02:53:24;22.29;41.46
66962;HTU21D;53897;51.126;5.868;2023-04-21T02:55:51;22.29;41.45
66962;HTU21D;53897;51.126;5.868;2023-04-21T02:58:17;22.27;41.46
66962;HTU21D;53897;51.126;5.868;2023-04-21T03:00:43;22.27;41.46
66962;HTU21D;53897;51.126;5.868;2023-04-21T03:03:08;22.26;41.45
66962;HTU21D;53897;51.126;5.868;2023-04-21T03:05:35;22.25;41.45
66962;HTU21D;53897;51.126;5.868;2023-04-21T03:08:00;22.24;41.46
66962;HTU21D;53897;51.126;5.868;2023-04-21T03:10:26;22.24;41.46
66962;HTU21D;53897;51.126;5.868;2023-04-21T03:12:54;22.23;41.44
66962;HTU21D;53897;51.126;5.868;2023-04-21T03:15:20;22.23;41.45
66962;HTU21D;53897;51.126;5.868;2023-04-21T03:17:49;22.22;41.44
66962;HTU21D;53897;51.126;5.868;2023-04-21T03:20:16;22.21;41.43
66962;HTU21D;53897;51.126;5.868;2023-04-21T03:22:42;22.21;41.44
66962;HTU21D;53897;51.126;5.868;2023-04-21T03:25:08;22.19;41.43
66962;HTU21D;53897;51.126;5.868;2023-04-21T03:27:34;22.18;41.43
66962;HTU21D;53897;51.126;5.868;2023-04-21T03:29:59;22.20;41.43
66962;HTU21D;53897;51.126;5.868;2023-04-21T03:32:25;22.17;41.41
66962;HTU21D;53897;51.126;5.868;2023-04-21T03:34:51;22.16;41.42
66962;HTU21D;53897;51.126;5.868;2023-04-21T03:37:18;22.16;41.42
66962;HTU21D;53897;51.126;5.868;2023-04-21T03:39:44;22.16;41.41
66962;HTU21D;53897;51.126;5.868;2023-04-21T03:42:10;22.16;41.38
66962;HTU21D;53897;51.126;5.868;2023-04-21T03:44:36;22.14;41.38
66962;HTU21D;53897;51.126;5.868;2023-04-21T03:47:01;22.14;41.38
66962;HTU21D;53897;51.126;5.868;2023-04-21T03:49:29;22.13;41.38
66962;HTU21D;53897;51.126;5.868;2023-04-21T03:51:54;22.12;41.37
66962;HTU21D;53897;51.126;5.868;2023-04-21T03:54:20;22.11;41.37
66962;HTU21D;53897;51.126;5.868;2023-04-21T03:56:46;22.11;41.36
66962;HTU21D;53897;51.126;5.868;2023-04-21T03:59:11;22.10;41.36
66962;HTU21D;53897;51.126;5.868;2023-04-21T04:01:37;22.08;41.36
66962;HTU21D;53897;51.126;5.868;2023-04-21T04:04:03;22.08;41.36
66962;HTU21D;53897;51.126;5.868;2023-04-21T04:06:28;22.08;41.35
66962;HTU21D;53897;51.126;5.868;2023-04-21T04:08:54;22.07;41.34
66962;HTU21D;53897;51.126;5.868;2023-04-21T04:11:20;22.06;41.35
66962;HTU21D;53897;51.126;5.868;2023-04-21T04:13:45;22.05;41.35
66962;HTU21D;53897;51.126;5.868;2023-04-21T04:16:11;22.05;41.34
66962;HTU21D;53897;51.126;5.868;2023-04-21T04:18:37;22.04;41.33
66962;HTU21D;53897;51.126;5.868;2023-04-21T04:21:05;22.04;41.33
66962;HTU21D;53897;51.126;5.868;2023-04-21T04:23:34;22.03;41.32
66962;HTU21D;53897;51.126;5.868;2023-04-21T04:26:01;22.02;41.32
66962;HTU21D;53897;51.126;5.868;2023-04-21T04:28:30;22.01;41.30
66962;HTU21D;53897;51.126;5.868;2023-04-21T04:30:56;22.01;41.29
66962;HTU21D;53897;51.126;5.868;2023-04-21T04:33:21;22.01;41.29
66962;HTU21D;53897;51.126;5.868;2023-04-21T04:35:47;22.01;41.29
66962;HTU21D;53897;51.126;5.868;2023-04-21T04:38:13;21.98;41.26
66962;HTU21D;53897;51.126;5.868;2023-04-21T04:40:41;21.98;41.29
66962;HTU21D;53897;51.126;5.868;2023-04-21T04:43:07;21.97;41.30
66962;HTU21D;53897;51.126;5.868;2023-04-21T04:45:36;21.96;41.27
66962;HTU21D;53897;51.126;5.868;2023-04-21T04:48:03;21.96;41.29
66962;HTU21D;53897;51.126;5.868;2023-04-21T04:50:29;21.95;41.35
66962;HTU21D;53897;51.126;5.868;2023-04-21T04:52:55;21.93;41.44
66962;HTU21D;53897;51.126;5.868;2023-04-21T04:55:22;21.92;41.52
66962;HTU21D;53897;51.126;5.868;2023-04-21T04:57:48;21.92;41.59
66962;HTU21D;53897;51.126;5.868;2023-04-21T05:00:14;21.92;41.65
66962;HTU21D;53897;51.126;5.868;2023-04-21T05:02:40;21.93;41.71
66962;HTU21D;53897;51.126;5.868;2023-04-21T05:05:06;21.95;41.71
66962;HTU21D;53897;51.126;5.868;2023-04-21T05:07:35;21.97;41.71
66962;HTU21D;53897;51.126;5.868;2023-04-21T05:10:01;22.03;41.68
66962;HTU21D;53897;51.126;5.868;2023-04-21T05:12:29;22.04;41.65
66962;HTU21D;53897;51.126;5.868;2023-04-21T05:14:57;22.06;41.63
66962;HTU21D;53897;51.126;5.868;2023-04-21T05:17:22;22.07;41.63
66962;HTU21D;53897;51.126;5.868;2023-04-21T05:19:48;22.09;41.62
66962;HTU21D;53897;51.126;5.868;2023-04-21T05:22:14;22.09;41.62
66962;HTU21D;53897;51.126;5.868;2023-04-21T05:24:40;22.11;41.64
66962;HTU21D;53897;51.126;5.868;2023-04-21T05:27:06;22.14;41.66
66962;HTU21D;53897;51.126;5.868;2023-04-21T05:29:31;22.16;41.64
66962;HTU21D;53897;51.126;5.868;2023-04-21T05:31:59;22.14;41.63
66962;HTU21D;53897;51.126;5.868;2023-04-21T05:34:24;22.18;41.65
66962;HTU21D;53897;51.126;5.868;2023-04-21T05:36:50;22.19;41.62
66962;HTU21D;53897;51.126;5.868;2023-04-21T05:39:17;22.21;41.61
66962;HTU21D;53897;51.126;5.868;2023-04-21T05:41:43;22.22;41.58
66962;HTU21D;53897;51.126;5.868;2023-04-21T05:44:08;22.23;41.55
66962;HTU21D;53897;51.126;5.868;2023-04-21T05:46:34;22.22;41.53
66962;HTU21D;53897;51.126;5.868;2023-04-21T05:49:00;22.23;41.50
66962;HTU21D;53897;51.126;5.868;2023-04-21T05:51:29;22.24;41.55
66962;HTU21D;53897;51.126;5.868;2023-04-21T05:53:54;22.25;41.58
66962;HTU21D;53897;51.126;5.868;2023-04-21T05:56:20;22.26;41.68
66962;HTU21D;53897;51.126;5.868;2023-04-21T05:58:46;22.26;41.75
66962;HTU21D;53897;51.126;5.868;2023-04-21T06:01:12;22.26;41.89
66962;HTU21D;53897;51.126;5.868;2023-04-21T06:03:37;22.27;42.01
66962;HTU21D;53897;51.126;5.868;2023-04-21T06:06:04;22.27;42.11
66962;HTU21D;53897;51.126;5.868;2023-04-21T06:08:30;22.24;42.30
66962;HTU21D;53897;51.126;5.868;2023-04-21T06:10:56;22.21;42.45
66962;HTU21D;53897;51.126;5.868;2023-04-21T06:13:22;22.20;42.48
66962;HTU21D;53897;51.126;5.868;2023-04-21T06:15:48;22.21;42.42
66962;HTU21D;53897;51.126;5.868;2023-04-21T06:18:14;22.21;42.31
66962;HTU21D;53897;51.126;5.868;2023-04-21T06:20:40;22.22;42.35
66962;HTU21D;53897;51.126;5.868;2023-04-21T06:23:06;22.23;42.31
66962;HTU21D;53897;51.126;5.868;2023-04-21T06:25:32;22.24;42.30
66962;HTU21D;53897;51.126;5.868;2023-04-21T06:27:58;22.23;42.33
66962;HTU21D;53897;51.126;5.868;2023-04-21T06:30:24;22.24;42.15
66962;HTU21D;53897;51.126;5.868;2023-04-21T06:32:49;22.25;42.10
66962;HTU21D;53897;51.126;5.868;2023-04-21T06:35:15;22.25;42.13
66962;HTU21D;53897;51.126;5.868;2023-04-21T06:37:41;22.26;42.16
66962;HTU21D;53897;51.126;5.868;2023-04-21T06:40:08;22.27;42.12
66962;HTU21D;53897;51.126;5.868;2023-04-21T06:42:33;22.27;42.17
66962;HTU21D;53897;51.126;5.868;2023-04-21T06:44:59;22.28;42.23
66962;HTU21D;53897;51.126;5.868;2023-04-21T06:47:25;22.29;42.27
66962;HTU21D;53897;51.126;5.868;2023-04-21T06:49:50;22.31;42.35
66962;HTU21D;53897;51.126;5.868;2023-04-21T06:52:16;22.31;42.45
66962;HTU21D;53897;51.126;5.868;2023-04-21T06:54:42;22.31;42.12
66962;HTU21D;53897;51.126;5.868;2023-04-21T06:57:08;22.31;41.97
66962;HTU21D;53897;51.126;5.868;2023-04-21T06:59:33;22.32;41.88
66962;HTU21D;53897;51.126;5.868;2023-04-21T07:01:59;22.31;41.99
66962;HTU21D;53897;51.126;5.868;2023-04-21T07:04:25;22.31;42.07
66962;HTU21D;53897;51.126;5.868;2023-04-21T07:06:54;22.32;42.23
66962;HTU21D;53897;51.126;5.868;2023-04-21T07:09:20;22.33;42.35
66962;HTU21D;53897;51.126;5.868;2023-04-21T07:11:46;22.34;42.35
66962;HTU21D;53897;51.126;5.868;2023-04-21T07:14:12;22.35;42.28
66962;HTU21D;53897;51.126;5.868;2023-04-21T07:16:37;22.35;42.31
66962;HTU21D;53897;51.126;5.868;2023-04-21T07:19:03;22.36;42.37
66962;HTU21D;53897;51.126;5.868;2023-04-21T07:21:29;22.35;42.38
66962;HTU21D;53897;51.126;5.868;2023-04-21T07:23:56;22.36;42.47
66962;HTU21D;53897;51.126;5.868;2023-04-21T07:26:23;22.37;42.52
66962;HTU21D;53897;51.126;5.868;2023-04-21T07:28:49;22.37;42.44
66962;HTU21D;53897;51.126;5.868;2023-04-21T07:31:16;22.40;42.40
66962;HTU21D;53897;51.126;5.868;2023-04-21T07:33:42;22.38;42.39
66962;HTU21D;53897;51.126;5.868;2023-04-21T07:36:08;22.41;42.39
66962;HTU21D;53897;51.126;5.868;2023-04-21T07:38:34;22.41;42.40
66962;HTU21D;53897;51.126;5.868;2023-04-21T07:40:59;22.43;42.36
66962;HTU21D;53897;51.126;5.868;2023-04-21T07:43:25;22.42;42.30
66962;HTU21D;53897;51.126;5.868;2023-04-21T07:45:51;22.42;42.26
66962;HTU21D;53897;51.126;5.868;2023-04-21T07:48:18;22.43;42.34
66962;HTU21D;53897;51.126;5.868;2023-04-21T07:50:43;22.44;42.34
66962;HTU21D;53897;51.126;5.868;2023-04-21T07:53:09;22.46;42.34
66962;HTU21D;53897;51.126;5.868;2023-04-21T07:55:35;22.47;42.29
66962;HTU21D;53897;51.126;5.868;2023-04-21T07:58:03;22.49;42.29
66962;HTU21D;53897;51.126;5.868;2023-04-21T08:00:29;22.48;42.26
66962;HTU21D;53897;51.126;5.868;2023-04-21T08:02:55;22.50;42.27
66962;HTU21D;53897;51.126;5.868;2023-04-21T08:05:20;22.52;42.30
66962;HTU21D;53897;51.126;5.868;2023-04-21T08:07:46;22.52;42.29
66962;HTU21D;53897;51.126;5.868;2023-04-21T08:10:12;22.54;42.29
66962;HTU21D;53897;51.126;5.868;2023-04-21T08:12:37;22.55;42.31
66962;HTU21D;53897;51.126;5.868;2023-04-21T08:15:03;22.58;42.32
66962;HTU21D;53897;51.126;5.868;2023-04-21T08:17:32;22.58;42.30
66962;HTU21D;53897;51.126;5.868;2023-04-21T08:19:58;22.61;42.30
66962;HTU21D;53897;51.126;5.868;2023-04-21T08:22:23;22.62;42.31
66962;HTU21D;53897;51.126;5.868;2023-04-21T08:24:49;22.63;42.30
66962;HTU21D;53897;51.126;5.868;2023-04-21T08:27:15;22.65;42.31
66962;HTU21D;53897;51.126;5.868;2023-04-21T08:29:40;22.65;42.32
66962;HTU21D;53897;51.126;5.868;2023-04-21T08:32:06;22.67;42.31
66962;HTU21D;53897;51.126;5.868;2023-04-21T08:34:33;22.68;42.30
66962;HTU21D;53897;51.126;5.868;2023-04-21T08:36:59;22.71;42.31
66962;HTU21D;53897;51.126;5.868;2023-04-21T08:39:25;22.72;42.29
66962;HTU21D;53897;51.126;5.868;2023-04-21T08:41:51;22.75;42.29
66962;HTU21D;53897;51.126;5.868;2023-04-21T08:44:19;22.77;42.29
66962;HTU21D;53897;51.126;5.868;2023-04-21T08:46:47;22.78;42.29
66962;HTU21D;53897;51.126;5.868;2023-04-21T08:49:18;22.80;42.29
66962;HTU21D;53897;51.126;5.868;2023-04-21T08:51:45;22.81;42.28
66962;HTU21D;53897;51.126;5.868;2023-04-21T08:54:11;22.83;42.27
66962;HTU21D;53897;51.126;5.868;2023-04-21T08:56:38;22.85;42.20
66962;HTU21D;53897;51.126;5.868;2023-04-21T08:59:05;22.87;42.17
66962;HTU21D;53897;51.126;5.868;2023-04-21T09:01:30;22.88;42.19
66962;HTU21D;53897;51.126;5.868;2023-04-21T09:04:16;22.90;42.09
66962;HTU21D;53897;51.126;5.868;2023-04-21T09:06:42;22.91;42.12
66962;HTU21D;53897;51.126;5.868;2023-04-21T09:09:08;22.92;42.13
66962;HTU21D;53897;51.126;5.868;2023-04-21T09:11:38;22.94;42.19
66962;HTU21D;53897;51.126;5.868;2023-04-21T09:14:04;22.95;42.18
66962;HTU21D;53897;51.126;5.868;2023-04-21T09:16:31;22.96;42.20
66962;HTU21D;53897;51.126;5.868;2023-04-21T09:19:00;23.01;42.21
66962;HTU21D;53897;51.126;5.868;2023-04-21T09:21:29;23.02;42.22
66962;HTU21D;53897;51.126;5.868;2023-04-21T09:23:56;23.05;42.21
66962;HTU21D;53897;51.126;5.868;2023-04-21T09:26:22;23.08;42.19
66962;HTU21D;53897;51.126;5.868;2023-04-21T09:28:50;23.09;42.19
66962;HTU21D;53897;51.126;5.868;2023-04-21T09:31:19;23.12;42.23
66962;HTU21D;53897;51.126;5.868;2023-04-21T09:34:10;23.14;42.29
66962;HTU21D;53897;51.126;5.868;2023-04-21T09:36:33;23.16;42.26
66962;HTU21D;53897;51.126;5.868;2023-04-21T09:39:01;23.21;42.26
66962;HTU21D;53897;51.126;5.868;2023-04-21T09:41:27;23.23;42.18
66962;HTU21D;53897;51.126;5.868;2023-04-21T09:43:52;23.24;42.22
66962;HTU21D;53897;51.126;5.868;2023-04-21T09:46:19;23.25;42.23
66962;HTU21D;53897;51.126;5.868;2023-04-21T09:48:47;23.27;42.26
66962;HTU21D;53897;51.126;5.868;2023-04-21T09:51:14;23.29;42.28
66962;HTU21D;53897;51.126;5.868;2023-04-21T09:53:41;23.31;42.29
66962;HTU21D;53897;51.126;5.868;2023-04-21T09:56:13;23.35;42.37
66962;HTU21D;53897;51.126;5.868;2023-04-21T09:58:51;23.36;42.38
66962;HTU21D;53897;51.126;5.868;2023-04-21T10:01:18;23.40;42.39
66962;HTU21D;53897;51.126;5.868;2023-04-21T10:03:47;23.43;42.33
66962;HTU21D;53897;51.126;5.868;2023-04-21T10:06:13;23.45;42.40
66962;HTU21D;53897;51.126;5.868;2023-04-21T10:08:40;23.47;42.47
66962;HTU21D;53897;51.126;5.868;2023-04-21T10:11:07;23.51;42.42
66962;HTU21D;53897;51.126;5.868;2023-04-21T10:13:34;23.53;42.52
66962;HTU21D;53897;51.126;5.868;2023-04-21T10:16:07;23.56;42.67
66962;HTU21D;53897;51.126;5.868;2023-04-21T10:18:37;23.59;42.73
66962;HTU21D;53897;51.126;5.868;2023-04-21T10:21:18;23.61;42.77
66962;HTU21D;53897;51.126;5.868;2023-04-21T10:23:52;23.65;42.69
66962;HTU21D;53897;51.126;5.868;2023-04-21T10:26:24;23.66;42.62
66962;HTU21D;53897;51.126;5.868;2023-04-21T10:29:03;23.68;42.57
66962;HTU21D;53897;51.126;5.868;2023-04-21T10:39:43;23.77;42.45
66962;HTU21D;53897;51.126;5.868;2023-04-21T10:44:50;23.82;42.43
66962;HTU21D;53897;51.126;5.868;2023-04-21T10:47:26;23.83;42.41
66962;HTU21D;53897;51.126;5.868;2023-04-21T10:49:55;23.85;42.39
66962;HTU21D;53897;51.126;5.868;2023-04-21T10:52:30;23.87;42.39
66962;HTU21D;53897;51.126;5.868;2023-04-21T10:57:23;23.90;42.36
66962;HTU21D;53897;51.126;5.868;2023-04-21T10:59:49;23.92;42.32
66962;HTU21D;53897;51.126;5.868;2023-04-21T11:02:16;23.95;42.26
66962;HTU21D;53897;51.126;5.868;2023-04-21T11:04:50;23.97;42.22
66962;HTU21D;53897;51.126;5.868;2023-04-21T11:07:21;23.98;42.21
66962;HTU21D;53897;51.126;5.868;2023-04-21T11:09:56;24.00;42.18
66962;HTU21D;53897;51.126;5.868;2023-04-21T11:12:26;24.00;42.16
66962;HTU21D;53897;51.126;5.868;2023-04-21T11:14:52;24.02;42.14
66962;HTU21D;53897;51.126;5.868;2023-04-21T11:17:19;24.03;42.11
66962;HTU21D;53897;51.126;5.868;2023-04-21T11:19:50;24.05;42.07
66962;HTU21D;53897;51.126;5.868;2023-04-21T11:22:17;24.08;42.03
66962;HTU21D;53897;51.126;5.868;2023-04-21T11:24:46;24.08;42.03
66962;HTU21D;53897;51.126;5.868;2023-04-21T11:27:12;24.10;41.94
66962;HTU21D;53897;51.126;5.868;2023-04-21T11:29:40;24.13;41.95
66962;HTU21D;53897;51.126;5.868;2023-04-21T11:32:06;24.13;41.90
66962;HTU21D;53897;51.126;5.868;2023-04-21T11:34:35;24.15;42.29
66962;HTU21D;53897;51.126;5.868;2023-04-21T11:37:01;24.16;43.67
66962;HTU21D;53897;51.126;5.868;2023-04-21T11:39:27;24.18;43.24
66962;HTU21D;53897;51.126;5.868;2023-04-21T11:41:52;24.23;42.65
66962;HTU21D;53897;51.126;5.868;2023-04-21T11:44:37;24.21;42.63
66962;HTU21D;53897;51.126;5.868;2023-04-21T11:47:15;24.25;42.87
66962;HTU21D;53897;51.126;5.868;2023-04-21T11:52:24;24.27;42.41
66962;HTU21D;53897;51.126;5.868;2023-04-21T11:54:57;24.29;42.52
66962;HTU21D;53897;51.126;5.868;2023-04-21T11:57:23;24.29;42.72
66962;HTU21D;53897;51.126;5.868;2023-04-21T11:59:50;24.30;42.96
66962;HTU21D;53897;51.126;5.868;2023-04-21T12:02:24;24.31;42.90
66962;HTU21D;53897;51.126;5.868;2023-04-21T12:04:57;24.34;42.88
66962;HTU21D;53897;51.126;5.868;2023-04-21T12:07:23;24.33;42.81
66962;HTU21D;53897;51.126;5.868;2023-04-21T12:09:52;24.34;42.75
66962;HTU21D;53897;51.126;5.868;2023-04-21T12:12:18;24.35;42.61
66962;HTU21D;53897;51.126;5.868;2023-04-21T12:14:44;24.38;42.55
66962;HTU21D;53897;51.126;5.868;2023-04-21T12:17:12;24.39;42.48
66962;HTU21D;53897;51.126;5.868;2023-04-21T12:19:40;24.40;42.42
66962;HTU21D;53897;51.126;5.868;2023-04-21T12:22:07;24.41;42.30
66962;HTU21D;53897;51.126;5.868;2023-04-21T12:24:34;24.41;42.20
66962;HTU21D;53897;51.126;5.868;2023-04-21T12:27:00;24.41;42.13
66962;HTU21D;53897;51.126;5.868;2023-04-21T12:29:27;24.41;42.10
66962;HTU21D;53897;51.126;5.868;2023-04-21T12:31:52;24.42;42.09
66962;HTU21D;53897;51.126;5.868;2023-04-21T12:34:18;24.42;42.05
66962;HTU21D;53897;51.126;5.868;2023-04-21T12:36:44;24.41;42.05
66962;HTU21D;53897;51.126;5.868;2023-04-21T12:39:09;24.42;42.03
66962;HTU21D;53897;51.126;5.868;2023-04-21T12:41:35;24.44;42.01
66962;HTU21D;53897;51.126;5.868;2023-04-21T12:44:01;24.44;41.98
66962;HTU21D;53897;51.126;5.868;2023-04-21T12:46:27;24.45;41.97
66962;HTU21D;53897;51.126;5.868;2023-04-21T12:48:53;24.47;41.94
66962;HTU21D;53897;51.126;5.868;2023-04-21T12:51:18;24.46;41.91
66962;HTU21D;53897;51.126;5.868;2023-04-21T12:53:44;24.46;41.90
66962;HTU21D;53897;51.126;5.868;2023-04-21T12:56:10;24.48;41.89
66962;HTU21D;53897;51.126;5.868;2023-04-21T12:58:36;24.48;41.90
66962;HTU21D;53897;51.126;5.868;2023-04-21T13:01:02;24.49;41.90
66962;HTU21D;53897;51.126;5.868;2023-04-21T13:03:30;24.49;41.89
66962;HTU21D;53897;51.126;5.868;2023-04-21T13:05:56;24.50;41.88
66962;HTU21D;53897;51.126;5.868;2023-04-21T13:08:22;24.50;41.87
66962;HTU21D;53897;51.126;5.868;2023-04-21T13:10:48;24.51;41.87
66962;HTU21D;53897;51.126;5.868;2023-04-21T13:13:13;24.54;41.87
66962;HTU21D;53897;51.126;5.868;2023-04-21T13:15:39;24.54;41.87
66962;HTU21D;53897;51.126;5.868;2023-04-21T13:18:05;24.55;41.87
66962;HTU21D;53897;51.126;5.868;2023-04-21T13:20:30;24.55;41.87
66962;HTU21D;53897;51.126;5.868;2023-04-21T13:22:56;24.54;41.87
66962;HTU21D;53897;51.126;5.868;2023-04-21T13:25:22;24.55;41.87
66962;HTU21D;53897;51.126;5.868;2023-04-21T13:27:48;24.56;41.90
66962;HTU21D;53897;51.126;5.868;2023-04-21T13:30:14;24.56;41.87
66962;HTU21D;53897;51.126;5.868;2023-04-21T13:32:41;24.57;41.89
66962;HTU21D;53897;51.126;5.868;2023-04-21T13:35:07;24.57;41.90
66962;HTU21D;53897;51.126;5.868;2023-04-21T13:37:39;24.57;41.87
66962;HTU21D;53897;51.126;5.868;2023-04-21T13:40:07;24.58;41.84
66962;HTU21D;53897;51.126;5.868;2023-04-21T13:42:37;24.58;41.83
66962;HTU21D;53897;51.126;5.868;2023-04-21T13:45:04;24.58;42.06
66962;HTU21D;53897;51.126;5.868;2023-04-21T13:47:33;24.58;42.19
66962;HTU21D;53897;51.126;5.868;2023-04-21T13:49:59;24.59;42.21
66962;HTU21D;53897;51.126;5.868;2023-04-21T13:52:25;24.60;42.14
66962;HTU21D;53897;51.126;5.868;2023-04-21T13:54:52;24.60;42.15
66962;HTU21D;53897;51.126;5.868;2023-04-21T13:57:19;24.60;42.17
66962;HTU21D;53897;51.126;5.868;2023-04-21T13:59:45;24.61;42.28
66962;HTU21D;53897;51.126;5.868;2023-04-21T14:02:11;24.62;42.43
66962;HTU21D;53897;51.126;5.868;2023-04-21T14:04:37;24.62;42.47
66962;HTU21D;53897;51.126;5.868;2023-04-21T14:07:04;24.63;42.54
66962;HTU21D;53897;51.126;5.868;2023-04-21T14:09:30;24.64;42.55
66962;HTU21D;53897;51.126;5.868;2023-04-21T14:11:56;24.63;42.56
66962;HTU21D;53897;51.126;5.868;2023-04-21T14:14:21;24.65;42.58
66962;HTU21D;53897;51.126;5.868;2023-04-21T14:16:47;24.65;42.58
66962;HTU21D;53897;51.126;5.868;2023-04-21T14:19:16;24.66;42.61
66962;HTU21D;53897;51.126;5.868;2023-04-21T14:21:42;24.70;42.81
66962;HTU21D;53897;51.126;5.868;2023-04-21T14:24:08;24.70;42.94
66962;HTU21D;53897;51.126;5.868;2023-04-21T14:26:34;24.71;43.02
66962;HTU21D;53897;51.126;5.868;2023-04-21T14:29:00;24.72;43.01
66962;HTU21D;53897;51.126;5.868;2023-04-21T14:31:27;24.72;43.00
66962;HTU21D;53897;51.126;5.868;2023-04-21T14:33:53;24.74;42.87
66962;HTU21D;53897;51.126;5.868;2023-04-21T14:36:18;24.73;42.67
66962;HTU21D;53897;51.126;5.868;2023-04-21T14:38:44;24.75;42.42
66962;HTU21D;53897;51.126;5.868;2023-04-21T14:41:10;24.76;42.26
66962;HTU21D;53897;51.126;5.868;2023-04-21T14:43:36;24.76;42.13
66962;HTU21D;53897;51.126;5.868;2023-04-21T14:46:01;24.77;42.11
66962;HTU21D;53897;51.126;5.868;2023-04-21T14:48:27;24.77;42.05
66962;HTU21D;53897;51.126;5.868;2023-04-21T14:50:53;24.78;42.00
66962;HTU21D;53897;51.126;5.868;2023-04-21T14:53:19;24.78;42.01
66962;HTU21D;53897;51.126;5.868;2023-04-21T14:55:45;24.80;42.03
66962;HTU21D;53897;51.126;5.868;2023-04-21T14:58:12;24.79;42.11
66962;HTU21D;53897;51.126;5.868;2023-04-21T15:00:38;24.80;42.00
66962;HTU21D;53897;51.126;5.868;2023-04-21T15:03:04;24.82;41.65
66962;HTU21D;53897;51.126;5.868;2023-04-21T15:05:30;24.82;41.39
66962;HTU21D;53897;51.126;5.868;2023-04-21T15:07:56;24.83;41.52
66962;HTU21D;53897;51.126;5.868;2023-04-21T15:10:22;24.80;41.52
66962;HTU21D;53897;51.126;5.868;2023-04-21T15:12:48;24.82;41.42
66962;HTU21D;53897;51.126;5.868;2023-04-21T15:15:13;24.82;41.18
66962;HTU21D;53897;51.126;5.868;2023-04-21T15:17:39;24.82;40.55
66962;HTU21D;53897;51.126;5.868;2023-04-21T15:20:05;24.78;40.06
66962;HTU21D;53897;51.126;5.868;2023-04-21T15:22:31;24.78;39.82
66962;HTU21D;53897;51.126;5.868;2023-04-21T15:24:57;24.76;39.48
66962;HTU21D;53897;51.126;5.868;2023-04-21T15:27:23;24.76;39.08
66962;HTU21D;53897;51.126;5.868;2023-04-21T15:29:48;24.74;38.79